Limbricht, Netherlands
Current Conditions -  °F | °C
As of 9:25 PM on Monday 26 Jan 2015 (Local Time) from EHBK Reporting Station
Overcast Overcast  
Wind Chill: 35°   Ceiling: 2700
Heat Index: 39°   Visibility: 6mi
Dew Point: 37°   Wind: 6mph
Humidity: 93%   Direction: 290°WNW
Pressure: 30.12"   Gusts: NA
Location:  51.01°N, 5.84°E
Report Text: EHBK 262025Z AUTO 29005KT 240V330 9999 FEW023 BKN027 OVC03204/03 Q1020 NOSIG
Loading
Personal Weather Stations






























Interactive Weather Map New forecast layout! Learn more

10-Day Weather Forecast

Advertisements
Track Severe Weather on mobile